Photo de Laille
Rennes
couvert
Metar : 2017/09/20 14:00 LFRN 201400Z AUTO 21008KT 180V240 9999 OVC041 17/11 Q1021 NOSIG
Couverture nuageuse : Overcast 4100 ft
Pression de 30.15 inHg (1021 hPa)
Humidité : 68%
Température : 63°F (17°C)
Vent de SSW at 9 mph (15 km/h)
Visibilité : 6 miles (10 km)
Nantes
nuageux
Metar : 2017/09/20 14:30 LFRS 201430Z AUTO 24004KT 200V270 9999 BKN045 20/10 Q1021 NOSIG
Couverture nuageuse : Mostly Cloudy 4500 ft
Traduc : Partly cloudy 700 ft
Pression de 30.15 inHg (1021 hPa)
Humidité : 53%
Température : 68°F (20°C)
Point de rosée : 50°F (10°C)
Vent de WSW at 5 mph (7 km/h)
Visibilité : 6 miles (10 km)
Lannion
couvert
Metar : 2017/09/20 14:30 LFRO 201430Z AUTO 20010KT 9999 BKN030 BKN038 OVC180 18/11 Q1019 NOSIG
Couverture nuageuse : Mostly Cloudy 3000 ft Mostly Cloudy 3800 ft Overcast 18000 ft
Traduc : Partly cloudy 700 ft
Pression de 30.09 inHg (1019 hPa)
Humidité : 64%
Température : 64°F (18°C)
Point de rosée : 52°F (11°C)
Vent de SSW at 12 mph (19 km/h)
Visibilité : 6 miles (10 km)
Dinard
couvert
Metar : 2017/09/20 14:30 LFRD 201430Z AUTO 21007KT 180V240 9999 FEW031 OVC040 17/11 Q1020 NOSIG
Couverture nuageuse : Few Clouds 3100 ft Overcast 4000 ft
Traduc : Partly cloudy 700 ft
Pression de 30.12 inHg (1020 hPa)
Humidité : 68%
Température : 63°F (17°C)
Point de rosée : 52°F (11°C)
Vent de SSW at 8 mph (13 km/h)
Visibilité : 6 miles (10 km)
Brest
couvert
Metar : 2017/09/20 14:30 LFRB 201430Z AUTO 20018KT 9999 SCT025 OVC052 18/12 Q1018 NOSIG
Couverture nuageuse : Partly Cloudy 2500 ft Overcast 5200 ft
Traduc : Partly cloudy 700 ft
Pression de 30.06 inHg (1018 hPa)
Humidité : 68%
Température : 64°F (18°C)
Point de rosée : 54°F (12°C)
Vent de SSW at 21 mph (33 km/h)
Visibilité : 6 miles (10 km)
Quimper
nuageux
Metar : 2017/09/20 14:30 LFRQ 201430Z AUTO 18011KT 150V220 9999 BKN023 BKN028 BKN035 17/11 Q1019 NOSIG
Couverture nuageuse : Mostly Cloudy 2300 ft Mostly Cloudy 2800 ft Mostly Cloudy 3500 ft
Traduc : Partly cloudy 700 ft
Pression de 30.09 inHg (1019 hPa)
Humidité : 68%
Température : 63°F (17°C)
Point de rosée : 52°F (11°C)
Vent de S at 13 mph (20 km/h)
Visibilité : 6 miles (10 km)
St Nazaire
Ciel dégagé
Metar : 2017/09/20 14:30 LFRZ 201430Z AUTO 21011KT CAVOK 18/11 Q1021 NOSIG
Couverture nuageuse :
Traduc : Partly cloudy 700 ft
Pression de 30.15 inHg (1021 hPa)
Humidité : 64%
Température : 64°F (18°C)
Point de rosée : 52°F (11°C)
Vent de SSW at 13 mph (20 km/h)
Visibilité : greater than 7 miles (10 km)
St Brieuc
couvert
Metar : 2017/09/20 14:30 LFRT 201430Z AUTO 23008KT 180V280 9999 SCT031 OVC037 17/10 Q1019
Couverture nuageuse : Partly Cloudy 3100 ft Overcast 3700 ft
Traduc : Partly cloudy 700 ft
Pression de 30.09 inHg (1019 hPa)
Humidité : 64%
Température : 63°F (17°C)
Point de rosée : 50°F (10°C)
Vent de SW at 9 mph (15 km/h)
Visibilité : 6 miles (10 km)
Lorient
nuageux
Metar : 2017/09/20 14:30 LFRH 201430Z AUTO 20010KT 170V230 9999 SCT024 SCT040 BKN180 18/12 Q1020 NOSIG
Couverture nuageuse : Partly Cloudy 2400 ft Partly Cloudy 4000 ft Mostly Cloudy 18000 ft
Traduc : Partly cloudy 700 ft
Pression de 30.12 inHg (1020 hPa)
Humidité : 68%
Température : 64°F (18°C)
Point de rosée : 54°F (12°C)
Vent de SSW at 12 mph (19 km/h)
Visibilité : 6 miles (10 km)
Vannes-Meucon
couvert
Metar : 2017/09/20 14:30 LFRV 201430Z AUTO 19008KT 160V250 9999 BKN022 BKN027 OVC035 16/12
Couverture nuageuse : Mostly Cloudy 2200 ft Mostly Cloudy 2700 ft Overcast 3500 ft
Traduc : Partly cloudy 700 ft
Pression de
Humidité : 77%
Température : 61°F (16°C)
Point de rosée : 54°F (12°C)
Vent de S at 9 mph (15 km/h)
Visibilité : 6 miles (10 km)

 


   Weather Underground PWS IBRETAGN39      Weather Underground PWS IBRETAGN39Retour Météo-Laillé adhérent de Météo-Bretagne et d'Infoclimat. Données mises à jour en temps réel via Météolink Climatologie réalisée sous Wswin et GraphWeather.

Affichage prévisions météo de WeatherUnderground via script PHP de Saratoga.

Copyright 2012-2017